Latest Weather Observations for Goulburn Airport

IDN60901

Issued at 1:41 pm EDT Sunday 26 January 2020 (issued every 10 minutes, with the page automatically refreshed every 10 minutes)

About weather observations | Map of Canberra area stations | Latest observations for Canberra area | Other Formats
Station Details ID: 070330 Name: GOULBURN AIRPORT AWS Lat: -34.81 Lon: 149.73 Height: 640.0 m
Data from the previous 72 hours. | See also: Recent months at Goulburn Airport
Date/Time
EDT
Temp
°C
App
Temp
°C
Dew
Point
°C
Rel
Hum
%
Delta-T
°C
Wind Press
QNH
hPa
Press
MSL
hPa
Rain since
9am
mm
Dir  Spd
km/h
Gust
km/h
Spd
kts
Gust
kts
26/01:37pm 32.9 26.8 10.3 25 13.4 WNW 33 52 18 28 1014.1 1011.1 0.0
26/01:30pm 33.0 25.8 9.1 23 13.9 NW 37 52 20 28 1013.9 1010.9 0.0
26/01:28pm 33.9 26.7 9.2 22 14.4 NW 37 50 20 27 1014.0 1011.0 0.0
26/01:22pm 33.7 27.7 10.9 25 13.6 WNW 33 50 18 27 1014.0 1011.0 0.0
26/01:00pm 31.7 26.3 11.0 28 12.3 WNW 30 65 16 35 1014.4 1011.4 0.0
26/12:58pm 32.0 27.3 10.7 27 12.6 W 26 65 14 35 1014.4 1011.4 0.0
26/12:30pm 31.6 27.0 9.8 26 12.7 NW 24 39 13 21 1014.7 1011.8 0.0
26/12:00pm 31.2 25.6 8.8 25 12.8 WNW 28 41 15 22 1014.9 1011.9 0.0
26/11:30am 31.1 26.7 10.4 28 12.2 WNW 24 39 13 21 1015.1 1012.1 0.0
26/11:00am 30.2 25.1 10.7 30 11.5 WNW 28 43 15 23 1015.2 1012.2 0.0
26/10:30am 29.9 25.2 11.9 33 10.8 NW 28 37 15 20 1015.2 1012.2 0.0
26/10:00am 28.2 24.9 12.9 38 9.2 NW 22 37 12 20 1015.3 1012.3 0.0
26/09:30am 26.1 26.5 17.2 58 5.7 NW 11 17 6 9 1015.4 1012.4 0.0
26/09:00am 24.5 24.7 17.7 66 4.4 NW 13 17 7 9 1015.3 1012.3 0.0
26/08:30am 23.2 25.1 18.9 77 2.8 NNW 7 15 4 8 1015.3 1012.3 0.0
26/08:07am 20.6 24.5 20.4 99 0.1 CALM 0 0 0 0 1015.2 1012.2 0.0
26/08:03am 20.6 24.5 20.4 99 0.1 CALM 0 0 0 0 1015.2 1012.2 0.0
26/08:00am 20.2 23.9 20.0 99 0.1 CALM 0 0 0 0 1015.3 1012.3 0.0
26/07:30am 18.7 21.7 18.5 99 0.1 CALM 0 0 0 0 1014.9 1011.9 0.0
26/07:05am 17.5 20.0 17.3 99 0.1 CALM 0 0 0 0 1014.6 1011.6 0.0
26/07:03am 17.4 19.9 17.2 99 0.1 CALM 0 0 0 0 1014.6 1011.6 0.0
26/07:00am 17.2 19.6 17.0 99 0.1 CALM 0 0 0 0 1014.6 1011.6 0.0
26/06:47am 16.9 19.2 16.7 99 0.1 CALM 0 0 0 0 1014.5 1011.5 0.0
26/06:30am 17.0 19.3 16.8 99 0.1 CALM 0 0 0 0 1014.4 1011.4 0.0
26/06:15am 17.4 19.9 17.2 99 0.1 CALM 0 0 0 0 1014.3 1011.3 0.0
26/06:00am 17.2 19.6 17.0 99 0.1 CALM 0 0 0 0 1014.1 1011.1 0.0
26/05:30am 17.4 19.9 17.2 99 0.1 CALM 0 0 0 0 1013.9 1010.9 0.0
26/05:00am 17.9 20.6 17.7 99 0.1 CALM 0 0 0 0 1013.6 1010.6 0.0
26/04:30am 17.6 20.0 17.0 96 0.4 CALM 0 0 0 0 1013.4 1010.4 0.0
26/04:00am 18.4 21.3 18.2 99 0.1 CALM 0 0 0 0 1013.4 1010.4 0.0
26/03:30am 18.4 21.1 17.8 96 0.4 CALM 0 0 0 0 1013.6 1010.6 0.0
26/03:00am 19.0 22.0 18.5 97 0.3 CALM 0 0 0 0 1014.0 1011.0 0.0
26/02:30am 18.8 21.4 17.6 93 0.8 CALM 0 0 0 0 1014.1 1011.1 0.0
26/02:00am 19.4 22.4 18.4 94 0.6 CALM 0 0 0 0 1014.1 1011.1 0.0
26/01:30am 19.9 22.8 18.2 90 1.1 CALM 0 0 0 0 1014.4 1011.4 0.0
26/01:00am 20.8 23.9 18.6 87 1.4 CALM 0 0 0 0 1014.3 1011.3 0.0
26/12:30am 21.4 23.6 18.4 83 1.9 NE 4 9 2 5 1014.4 1011.4 0.0
26/12:00am 22.3 23.9 19.1 82 2.1 NE 9 13 5 7 1014.5 1011.5 0.0
 
Date/Time
EDT
Temp
°C
App
Temp
°C
Dew
Point
°C
Rel
Hum
%
Delta-T
°C
Wind Press
QNH
hPa
Press
MSL
hPa
Rain since
9am
mm
Dir  Spd
km/h
Gust
km/h
Spd
kts
Gust
kts
25/11:30pm 22.5 23.7 19.1 81 2.2 NNE 11 15 6 8 1014.9 1011.9 0.0
25/11:00pm 22.7 23.1 19.1 80 2.3 NNE 15 19 8 10 1014.9 1011.9 0.0
25/10:30pm 23.0 22.7 19.2 79 2.5 NNE 19 24 10 13 1014.7 1011.8 0.0
25/10:00pm 23.3 22.9 18.8 76 2.9 NNE 19 26 10 14 1014.5 1011.5 0.0
25/09:30pm 23.5 22.3 18.4 73 3.3 NNE 22 32 12 17 1014.1 1011.1 0.0
25/09:00pm 24.1 22.5 18.3 70 3.7 NE 24 33 13 18 1013.8 1010.8 0.0
25/08:30pm 24.5 22.8 18.2 68 4.1 NE 24 35 13 19 1013.4 1010.4 0.0
25/08:00pm 25.4 22.0 17.6 62 5.0 NE 32 41 17 22 1013.3 1010.2 0.0
25/07:30pm 26.4 22.9 17.5 58 5.7 NE 32 41 17 22 1012.6 1009.6 0.0
25/07:00pm 28.0 24.7 16.9 51 7.1 NE 30 43 16 23 1012.3 1009.3 0.0
25/06:30pm 29.9 27.1 16.3 43 8.7 NE 26 35 14 19 1011.9 1008.9 0.0
25/06:00pm 30.6 29.0 15.1 39 9.8 ENE 17 24 9 13 1011.7 1008.6 0.0
25/05:30pm 32.1 28.6 7.0 21 14.0 NNW 15 24 8 13 1011.9 1008.9 0.0
25/05:00pm 33.5 30.6 8.2 21 14.5 WNW 13 30 7 16 1011.9 1008.9 0.0
25/04:30pm 33.2 28.7 8.6 22 14.2 WNW 22 32 12 17 1012.1 1009.1 0.0
25/04:00pm 32.6 27.4 8.8 23 13.7 WNW 26 37 14 20 1012.4 1009.4 0.0
25/03:30pm 32.6 27.8 8.8 23 13.7 WNW 24 39 13 21 1012.8 1009.8 0.0
25/03:00pm 30.0 28.6 13.3 36 10.2 NE 13 32 7 17 1013.3 1010.2 0.0
25/02:30pm 30.0 29.0 14.5 38 9.7 ENE 13 20 7 11 1013.7 1010.7 0.0
25/02:00pm 30.4 29.1 15.7 41 9.3 NNE 17 28 9 15 1014.2 1011.2 0.0
25/01:30pm 28.1 26.3 15.4 46 8.0 ENE 19 26 10 14 1014.9 1011.9 0.0
25/01:00pm 28.1 26.2 15.7 46 7.8 NE 20 32 11 17 1015.2 1012.2 0.0
25/12:30pm 27.3 25.2 16.3 51 7.0 NE 22 33 12 18 1015.7 1012.7 0.0
25/12:00pm 26.1 24.3 16.9 57 5.9 NE 22 32 12 17 1016.0 1013.0 0.0
25/11:30am 25.9 24.1 15.6 53 6.4 NE 19 26 10 14 1016.1 1013.2 0.0
25/11:00am 25.4 23.5 15.7 55 6.0 NNE 20 28 11 15 1016.2 1013.3 0.0
25/10:30am 24.6 22.5 16.1 59 5.3 ENE 22 32 12 17 1016.4 1013.5 0.0
25/10:00am 24.3 22.4 16.6 62 4.8 NE 22 32 12 17 1016.6 1013.6 0.0
25/09:30am 23.3 21.6 17.1 68 3.9 ENE 22 30 12 16 1016.4 1013.5 0.0
25/09:06am 21.9 20.5 17.1 74 3.0 NE 20 28 11 15 1016.6 1013.6 0.0
25/09:00am 21.9 20.4 16.8 73 3.2 NE 20 26 11 14 1016.6 1013.6 0.0
25/08:30am 21.3 20.3 17.5 79 2.4 ENE 19 24 10 13 1016.6 1013.6 0.0
25/08:00am 20.1 19.6 17.7 86 1.5 ENE 17 24 9 13 1016.4 1013.5 0.0
25/07:30am 19.3 19.3 18.0 92 0.8 ENE 15 19 8 10 1016.3 1013.4 0.0
25/07:28am 19.2 19.1 17.9 92 0.8 ENE 15 19 8 10 1016.3 1013.4 0.0
25/07:00am 18.8 18.8 18.1 96 0.4 ENE 15 19 8 10 1016.1 1013.2 0.0
25/06:30am 18.6 19.2 17.8 95 0.5 NE 11 15 6 8 1015.9 1012.9 0.0
25/06:00am 18.7 19.2 17.4 92 0.8 NE 11 15 6 8 1015.5 1012.5 0.0
25/05:30am 18.7 18.2 16.9 89 1.1 ENE 15 20 8 11 1015.3 1012.3 0.0
25/05:00am 18.8 19.3 16.6 87 1.4 NE 9 13 5 7 1015.2 1012.2 0.0
25/04:36am 18.7 19.6 16.5 87 1.4 ENE 7 13 4 7 1015.2 1012.2 0.0
25/04:30am 18.6 19.5 16.2 86 1.5 E 6 9 3 5 1015.2 1012.2 0.0
25/04:00am 18.5 19.3 16.3 87 1.4 E 7 11 4 6 1015.2 1012.2 0.0
25/03:30am 18.7 19.3 15.9 84 1.7 E 7 11 4 6 1015.4 1012.4 0.0
25/03:00am 18.9 19.2 16.0 83 1.8 ENE 9 13 5 7 1015.5 1012.5 0.0
25/02:30am 18.7 19.3 15.8 83 1.8 E 7 11 4 6 1015.6 1012.6 0.0
25/02:00am 18.4 18.9 15.6 84 1.7 ESE 7 11 4 6 1015.9 1012.9 0.0
25/01:30am 18.3 19.0 15.6 84 1.6 SE 6 9 3 5 1016.1 1013.2 0.0
25/01:22am 18.2 18.9 15.6 85 1.6 SE 6 7 3 4 1016.1 1013.2 0.0
25/01:00am 18.2 17.5 15.5 84 1.6 ESE 13 19 7 10 1016.1 1013.2 0.0
25/12:30am 18.5 17.6 15.9 85 1.6 SE 15 19 8 10 1016.1 1013.2 0.0
25/12:00am 18.5 18.4 15.9 85 1.6 SE 11 19 6 10 1016.2 1013.3 0.0
 
Date/Time
EDT
Temp
°C
App
Temp
°C
Dew
Point
°C
Rel
Hum
%
Delta-T
°C
Wind Press
QNH
hPa
Press
MSL
hPa
Rain since
9am
mm
Dir  Spd
km/h
Gust
km/h
Spd
kts
Gust
kts
24/11:47pm 18.3 18.1 15.7 85 1.6 SE 11 15 6 8 1016.2 1013.3 0.0
24/11:30pm 17.9 17.2 15.3 85 1.6 ESE 13 19 7 10 1016.2 1013.3 0.0
24/11:24pm 18.3 17.3 15.6 84 1.6 E 15 22 8 12 1016.2 1013.3 0.0
24/11:00pm 17.8 17.8 15.2 85 1.6 ESE 9 13 5 7 1016.0 1013.0 0.0
24/10:30pm 18.5 17.7 15.2 81 2.0 E 13 20 7 11 1015.9 1012.9 0.0
24/10:00pm 19.4 18.0 15.5 78 2.4 E 17 26 9 14 1015.7 1012.7 0.0
24/09:30pm 19.7 19.6 14.9 74 2.9 E 9 13 5 7 1015.4 1012.4 0.0
24/09:00pm 17.8 16.2 7.8 52 5.2 W 6 17 3 9 1014.4 1011.4 0.0
24/08:30pm 20.2 19.0 4.7 36 7.8 CALM 0 2 0 1 1013.7 1010.7 0.0
24/08:00pm 22.6 19.2 4.2 30 9.3 W 11 13 6 7 1013.1 1010.1 0.0
24/07:30pm 24.9 20.6 3.5 25 10.8 WNW 15 20 8 11 1012.7 1009.7 0.0
24/07:00pm 25.7 20.4 3.0 23 11.5 WSW 20 28 11 15 1012.3 1009.3 0.0
24/06:30pm 26.5 21.1 4.3 24 11.5 W 22 30 12 16 1012.0 1009.0 0.0
24/06:00pm 27.0 21.8 5.3 25 11.5 WNW 22 30 12 16 1011.4 1008.4 0.0
24/05:30pm 27.2 21.7 6.0 26 11.4 NW 24 33 13 18 1011.4 1008.4 0.0
24/05:00pm 27.2 20.9 5.5 25 11.6 W 28 41 15 22 1011.6 1008.5 0.0
24/04:30pm 27.3 22.0 6.7 27 11.2 WNW 24 41 13 22 1011.9 1008.9 0.0
24/04:00pm 27.9 23.2 7.7 28 11.2 W 22 39 12 21 1012.1 1009.1 0.0
24/03:30pm 27.2 20.3 6.6 27 11.2 W 32 43 17 23 1012.3 1009.3 0.0
24/03:00pm 28.4 22.9 7.6 27 11.5 W 26 39 14 21 1012.2 1009.2 0.0
24/02:30pm 27.0 20.0 6.9 28 10.9 WNW 33 50 18 27 1012.2 1009.2 0.0
24/02:11pm 27.4 21.6 7.8 29 10.9 W 28 46 15 25 1012.2 1009.2 0.0
24/02:00pm 27.5 22.3 8.9 31 10.5 W 26 37 14 20 1012.3 1009.3 0.0
24/01:45pm 26.9 21.4 9.3 33 10.0 WNW 28 46 15 25 1012.4 1009.4 0.0
24/01:30pm 26.5 21.3 8.9 33 9.9 W 26 39 14 21 1012.4 1009.4 0.0
24/01:00pm 26.1 21.5 9.5 35 9.4 WNW 24 35 13 19 1012.6 1009.6 0.0
24/12:30pm 24.9 21.0 9.6 38 8.6 WNW 20 32 11 17 1012.8 1009.8 0.0
24/12:00pm 25.3 21.9 11.1 41 8.2 W 20 33 11 18 1012.9 1009.9 0.0
24/11:30am 23.6 19.4 9.9 42 7.7 W 22 30 12 16 1012.9 1009.9 0.0
24/11:00am 22.8 19.1 10.3 45 7.1 WNW 20 30 11 16 1012.9 1009.9 0.0
24/10:30am 22.1 18.5 9.9 46 6.8 W 19 26 10 14 1013.0 1010.0 0.0
24/10:00am 20.9 17.6 11.0 53 5.6 W 19 26 10 14 1012.9 1009.9 0.0
24/09:30am 19.8 17.6 12.1 61 4.4 W 15 20 8 11 1012.9 1009.9 0.0
24/09:00am 18.9 16.6 12.9 68 3.5 W 17 22 9 12 1012.8 1009.8 -
24/08:30am 17.8 15.3 13.5 76 2.5 NW 19 22 10 12 1012.8 1009.8 -
24/08:00am 16.9 14.6 13.0 78 2.2 NW 17 19 9 10 1012.3 1009.3 -
24/07:30am 16.3 15.1 14.0 86 1.3 WNW 13 15 7 8 1012.2 1009.2 -
24/07:00am 15.2 13.4 13.2 88 1.1 NW 15 17 8 9 1011.3 1008.3 -
24/06:30am 15.0 13.2 13.2 89 1.0 NW 15 17 8 9 1010.6 1007.6 -
24/06:00am 15.2 13.7 13.1 87 1.2 NW 13 15 7 8 1010.2 1007.1 -
24/05:30am 15.3 14.4 13.7 90 0.9 NW 11 13 6 7 1010.1 1007.0 -
24/05:00am 15.4 14.9 13.8 90 0.9 NW 9 13 5 7 1009.5 1006.5 -
24/04:30am 15.7 15.2 13.7 88 1.2 WNW 9 15 5 8 1009.5 1006.5 -
24/04:00am 15.7 16.6 13.9 89 1.0 W 2 6 1 3 1009.5 1006.5 -
24/03:30am 15.7 14.8 13.7 88 1.2 NW 11 15 6 8 1009.0 1005.9 -
24/03:04am 16.0 15.1 13.8 87 1.3 NW 11 17 6 9 1009.1 1006.1 -
24/03:00am 15.8 15.3 13.8 88 1.2 WNW 9 15 5 8 1009.1 1006.1 3.0
24/02:54am 16.1 15.6 13.9 87 1.3 WNW 9 17 5 9 1008.9 1005.8 -
24/02:30am 16.5 15.2 13.8 84 1.6 NNW 13 17 7 9 1008.9 1005.8 -
24/02:00am 16.3 14.7 13.8 85 1.5 NNW 15 20 8 11 1009.1 1006.1 -
24/01:30am 17.1 16.2 13.8 81 1.9 N 11 15 6 8 1008.5 1005.4 -
24/01:00am 17.3 16.2 13.0 76 2.5 WNW 11 20 6 11 1008.5 1005.4 -
24/12:30am 18.1 16.8 12.5 70 3.2 NW 11 17 6 9 1007.8 1004.8 -
24/12:00am 18.5 17.4 12.0 66 3.7 NNW 9 13 5 7 1008.5 1005.4 -
 
Date/Time
EDT
Temp
°C
App
Temp
°C
Dew
Point
°C
Rel
Hum
%
Delta-T
°C
Wind Press
QNH
hPa
Press
MSL
hPa
Rain since
9am
mm
Dir  Spd
km/h
Gust
km/h
Spd
kts
Gust
kts
23/11:30pm 18.6 16.4 12.1 66 3.7 WNW 15 19 8 10 1008.5 1005.4 -
23/11:00pm 18.7 16.9 12.2 66 3.7 WNW 13 19 7 10 1008.3 1005.2 -
23/10:30pm 19.1 16.9 12.1 64 4.0 WNW 15 24 8 13 1008.4 1005.3 -
23/10:00pm 19.5 15.0 12.5 64 4.1 W 28 33 15 18 1007.9 1004.9 -
23/09:30pm 21.1 17.6 12.3 57 5.1 W 22 30 12 16 1007.0 1003.9 -
23/09:00pm 22.4 18.9 12.1 52 6.0 WSW 22 30 12 16 1007.0 1003.9 0.0
23/08:30pm 22.7 19.1 11.7 49 6.4 WSW 22 32 12 17 1005.3 1002.2 -
23/08:00pm 25.7 21.3 10.3 38 8.9 WSW 24 33 13 18 1004.3 1001.2 -
23/07:30pm 27.3 22.7 10.9 36 9.6 W 26 35 14 19 1003.7 1000.6 -
23/07:00pm 29.2 25.7 10.8 32 10.8 WNW 20 28 11 15 1003.0 999.9 -
23/06:30pm 29.8 25.6 12.3 34 10.5 NNW 26 33 14 18 1002.7 999.6 -
23/06:00pm 29.9 24.9 12.3 33 10.6 NNW 30 39 16 21 1003.1 1000.0 -
23/05:30pm 29.8 23.1 12.3 34 10.5 NW 39 50 21 27 1003.6 1000.5 -
23/05:12pm 29.3 22.5 13.1 37 9.9 NNW 41 59 22 32 1003.7 1000.6 -
23/05:00pm 29.1 22.1 13.7 38 9.5 NNW 43 57 23 31 1003.9 1000.8 -
23/04:53pm 28.8 22.4 15.3 43 8.5 NNW 43 59 23 32 1004.1 1001.0 -
23/04:30pm 23.8 17.1 16.1 62 4.8 NW 46 69 25 37 1004.2 1001.1 -
23/04:21pm 26.7 17.9 13.4 43 8.0 WNW 52 70 28 38 1003.9 1000.8 -
23/04:00pm 31.7 23.5 10.4 27 12.6 NW 44 63 24 34 1002.9 999.8 -
23/03:41pm 31.9 23.7 11.7 29 12.1 NW 46 65 25 35 1002.7 999.6 -
23/03:35pm 31.2 22.4 11.1 29 11.9 NW 48 65 26 35 1002.9 999.8 -
23/03:32pm 31.2 23.0 11.6 30 11.7 NW 46 65 25 35 1003.0 999.9 -
23/03:30pm 30.5 22.1 11.0 30 11.5 NW 46 59 25 32 1003.1 1000.0 -
23/03:00pm 33.2 22.8 9.3 23 14.0 NW 54 72 29 39 1002.6 999.5 -
23/02:50pm 34.0 23.6 9.3 22 14.4 NW 54 70 29 38 1002.4 999.3 -
23/02:30pm 33.5 24.3 9.5 23 14.1 NW 48 65 26 35 1002.4 999.3 0.0
23/02:00pm 33.5 24.1 8.9 22 14.3 NW 48 70 26 38 1002.7 999.6 0.0

Latest Capital City Observations: Canberra | Sydney | Melbourne | Brisbane | Adelaide | Perth | Hobart | Darwin

Other formats

Comma delimited format used in spreadsheet applications
http://www.bom.gov.au/fwo/IDN60903/IDN60903.95716.axf

JavaScript Object Notation format (JSON) in row-major order
http://www.bom.gov.au/fwo/IDN60903/IDN60903.95716.json

Data quality

Most of these data are generated automatically and are frequently updated. Quality checks on data are not normally performed. It is possible for incorrect values to appear. Refer to information at About Latest Weather Observations and please check the disclaimer before using these data.